Aérodrome :
LOGIN :

S'inscrire | Disclaimer

   EN    FR    IT 

 










Légende :    VFR   VFR Marginal   IFR   IFR Intensif   IFR Très Intensif
Visi : 
Plafond : 
>= 8 km
>= 3000ft
5 à 8 km
1000 à 3000 ft
1500m à 5 km
500 à 1000 ft
800 à 1500m
200 à 500 ft
< 800m
< 200 ft
Symboles :   Orages  Brouillard  Fortes neiges  Fortes précipitations  Vent > 20 kt
SIGMETs :   Divers  Orages  Givrage  Turbulence  Onde Orograph.  Cendres Volcan.







- Altitude de l'aérodrome : 156 ft
- Code IATA : MLN


GEML - Melilla

DERNIER METAR :
  • 222130Z AUTO 10008KT 040V120 9999 FEW046 25/20 Q1018

METARs EXPIRÉS :
  • 222100Z AUTO 10009KT 070V140 9999 FEW043 26/19 Q1018
  • 222030Z AUTO 10007KT 060V130 9999 NCD 26/19 Q1018
  • 222000Z AUTO 10009KT 050V140 9999 FEW043 26/20 Q1018
  • 221930Z AUTO 09009KT 030V120 9999 FEW041 26/20 Q1017
  • 221900Z 10009KT 070V130 9999 FEW016 26/20 Q1017

TAF TAF GEML
Valide du 22 à 21h jusqu'au 23 à 21h UTC


222000Z 2221/2321 07010KT 9999 SCT012 SCT020 TX28/2314Z TN25/2306Z
TEMPO 2222/2309 BKN010
PROB30
TEMPO 2309/2315 07015G25KT
Pas de NOTAMs connus pour ce terrain.



MET'MAP, la Météo Aéronautique d'un coup d'oeil ! - Copyright ORBIFLY Décembre 2007 - Disclaimer

ORBIFLY MET'MAP TEAM :

Programmation & Développement : Alexandra Zaïnal
Conception & Développement : Baudouin d'Aumeries
Co-Programmation & Développement : Marc-Olivier Méhu
Soutien technique & logistique : Manuel Goepfert

Contact : metmap@orbifly.com




SOURCES & CREDITS :

   NOAA